Time;durP1;ratioP1;P1;durP2;ratioP2;P2;SDS_P1;SDS_P2;PMS_P1;PMS_P2;Temp;Humidity;BMP_temperature;BMP_pressure;BME280_temperature;BME280_humidity;BME280_pressure;Samples;Min_cycle;Max_cycle;Signal;HPM_P1;HPM_P2
2022/11/13 00:00:53;;;;;;;63.40;15.50;;;2.50;99.90;;;;;;5074198;28;20044;-49
2022/11/13 00:03:19;;;;;;;55.05;14.38;;;2.50;99.90;;;;;;5074301;28;20426;-51
2022/11/13 00:05:44;;;;;;;16.30;12.68;;;2.40;99.90;;;;;;5074220;28;20025;-52
2022/11/13 00:08:10;;;;;;;22.27;12.32;;;2.40;99.90;;;;;;5074096;28;20440;-53
2022/11/13 00:10:36;;;;;;;36.85;13.32;;;2.30;99.90;;;;;;5074112;28;20032;-53
2022/11/13 00:13:02;;;;;;;25.90;13.52;;;2.20;99.90;;;;;;5074249;28;20040;-52
2022/11/13 00:15:28;;;;;;;58.55;23.60;;;2.20;99.90;;;;;;5074062;28;20460;-53
2022/11/13 00:17:53;;;;;;;130.93;46.45;;;2.20;99.90;;;;;;5073860;28;20063;-55
2022/11/13 00:20:19;;;;;;;90.22;33.40;;;2.20;99.90;;;;;;5073964;28;20552;-52
2022/11/13 00:22:45;;;;;;;20.48;14.93;;;2.20;99.90;;;;;;5073802;28;20550;-55
2022/11/13 00:25:11;;;;;;;17.05;13.98;;;2.10;99.90;;;;;;5073938;28;20059;-51
2022/11/13 00:27:36;;;;;;;24.95;17.80;;;2.20;99.90;;;;;;5073705;28;20107;-52
2022/11/13 00:30:03;;;;;;;73.03;41.55;;;2.20;99.90;;;;;;5073572;28;20063;-51
2022/11/13 00:32:29;;;;;;;28.00;19.77;;;2.10;99.90;;;;;;5089250;28;20032;-52
2022/11/13 00:34:54;;;;;;;30.25;21.90;;;2.10;99.90;;;;;;5073642;28;20028;-53
2022/11/13 00:37:20;;;;;;;19.02;14.75;;;2.10;99.90;;;;;;5073626;28;20401;-53
2022/11/13 00:39:46;;;;;;;19.50;12.63;;;2.10;99.90;;;;;;5073581;28;20610;-50
2022/11/13 00:42:11;;;;;;;37.17;24.70;;;2.00;99.90;;;;;;5073416;28;20017;-51
2022/11/13 00:44:37;;;;;;;55.97;28.73;;;2.00;99.90;;;;;;5089040;28;20446;-53
2022/11/13 00:47:03;;;;;;;17.55;13.40;;;2.00;99.90;;;;;;5073414;28;20475;-52
2022/11/13 00:49:28;;;;;;;15.30;12.50;;;1.90;99.90;;;;;;5072165;28;20025;-49
2022/11/13 00:51:54;;;;;;;23.23;16.42;;;1.90;99.90;;;;;;5088422;28;20059;-51
2022/11/13 00:54:20;;;;;;;41.65;13.15;;;1.90;99.90;;;;;;5071480;28;20051;-53
2022/11/13 00:56:45;;;;;;;24.42;12.93;;;1.90;99.90;;;;;;5073084;28;20038;-52
2022/11/13 00:59:11;;;;;;;19.65;15.05;;;2.00;99.90;;;;;;5073238;28;20082;-54
2022/11/13 01:01:36;;;;;;;12.77;10.82;;;1.90;99.90;;;;;;5072996;28;20024;-53
2022/11/13 01:04:02;;;;;;;14.80;11.20;;;1.90;99.90;;;;;;5073254;28;20029;-51
2022/11/13 01:06:28;;;;;;;39.92;25.17;;;1.80;99.90;;;;;;5072992;28;20025;-53
2022/11/13 01:08:56;;;;;;;31.30;21.75;;;1.70;99.90;;;;;;5072930;28;20547;-51
2022/11/13 01:11:24;;;;;;;49.58;34.05;;;1.80;99.90;;;;;;5088669;28;20029;-51
2022/11/13 01:13:51;;;;;;;33.15;23.40;;;1.70;99.90;;;;;;5072958;28;20070;-51
2022/11/13 01:16:23;;;;;;;26.65;18.77;;;1.70;99.90;;;;;;5088443;28;20047;-55
2022/11/13 01:18:49;;;;;;;20.75;15.20;;;1.70;99.90;;;;;;5072661;28;20051;-53
2022/11/13 01:21:18;;;;;;;30.20;17.05;;;1.70;99.90;;;;;;5072743;28;20067;-51
2022/11/13 01:23:45;;;;;;;46.65;27.42;;;1.70;99.90;;;;;;5072605;28;20376;-51
2022/11/13 01:26:16;;;;;;;76.53;20.23;;;1.80;99.90;;;;;;5072754;28;20104;-51
2022/11/13 01:28:44;;;;;;;34.92;18.70;;;1.80;99.90;;;;;;5072246;28;20082;-53
2022/11/13 01:31:17;;;;;;;33.75;15.30;;;1.70;99.90;;;;;;5072626;28;20016;-54
2022/11/13 01:33:44;;;;;;;233.05;43.10;;;1.70;99.90;;;;;;5072378;28;20021;-52
2022/11/13 01:36:13;;;;;;;62.65;20.58;;;1.70;99.90;;;;;;5072488;28;20013;-51
2022/11/13 01:38:38;;;;;;;13.60;10.70;;;1.60;99.90;;;;;;5072055;28;20020;-52
2022/11/13 01:41:06;;;;;;;57.03;23.10;;;1.60;99.90;;;;;;5071748;28;20467;-52
2022/11/13 01:43:35;;;;;;;51.40;13.73;;;1.70;99.90;;;;;;5071793;28;20101;-51
2022/11/13 01:46:05;;;;;;;15.10;11.73;;;1.70;99.90;;;;;;5072227;28;20066;-52
2022/11/13 01:48:57;;;;;;;155.95;15.18;;;1.70;99.90;;;;;;5087566;28;20028;-54
2022/11/13 01:51:51;;;;;;;44.50;17.23;;;1.70;99.90;;;;;;5071140;28;20079;-52
2022/11/13 01:54:22;;;;;;;33.67;12.30;;;1.70;99.90;;;;;;5069723;28;20040;-55
2022/11/13 01:56:48;;;;;;;21.08;13.88;;;1.70;99.90;;;;;;5071910;28;20446;-52
2022/11/13 01:59:19;;;;;;;22.20;13.20;;;1.80;99.90;;;;;;5071902;28;20415;-52
2022/11/13 02:01:45;;;;;;;21.10;15.35;;;1.80;99.90;;;;;;5071535;28;20021;-52
2022/11/13 02:04:10;;;;;;;18.00;12.25;;;1.80;99.90;;;;;;5071860;28;20081;-51
2022/11/13 02:06:59;;;;;;;13.18;11.20;;;1.90;99.90;;;;;;5071360;28;20017;-51
2022/11/13 02:09:30;;;;;;;13.73;11.45;;;1.90;99.90;;;;;;5072012;28;20027;-52
2022/11/13 02:11:56;;;;;;;15.25;11.38;;;1.80;99.90;;;;;;5071899;28;20078;-52
2022/11/13 02:14:25;;;;;;;14.88;11.23;;;1.80;99.90;;;;;;5072016;28;20434;-53
2022/11/13 02:16:55;;;;;;;15.57;10.90;;;1.70;99.90;;;;;;5071914;28;20116;-53
2022/11/13 02:19:41;;;;;;;11.75;10.30;;;1.70;99.90;;;;;;5071802;28;20102;-52
2022/11/13 02:22:33;;;;;;;17.67;13.20;;;1.70;99.90;;;;;;5071898;28;20024;-52
2022/11/13 02:25:01;;;;;;;15.85;11.70;;;1.80;99.90;;;;;;5071906;28;20467;-50
2022/11/13 02:27:34;;;;;;;13.55;10.80;;;1.90;99.90;;;;;;5071430;28;20055;-51
2022/11/13 02:30:31;;;;;;;15.10;11.90;;;1.90;99.90;;;;;;5071680;28;20025;-53
2022/11/13 02:32:58;;;;;;;17.70;12.32;;;1.90;99.90;;;;;;5066975;28;20555;-52
2022/11/13 02:35:32;;;;;;;21.48;12.40;;;1.90;99.90;;;;;;5071679;28;20032;-52
2022/11/13 02:38:00;;;;;;;13.55;11.82;;;1.90;99.90;;;;;;5071718;28;20647;-51
2022/11/13 02:40:26;;;;;;;16.63;12.70;;;1.90;99.90;;;;;;5071589;28;20124;-52
2022/11/13 02:42:52;;;;;;;15.90;12.48;;;1.90;99.90;;;;;;5071402;28;20032;-51
2022/11/13 02:45:18;;;;;;;15.05;12.15;;;1.90;99.90;;;;;;5071628;28;20403;-51
2022/11/13 02:47:44;;;;;;;15.00;12.23;;;1.80;99.90;;;;;;5071545;28;20020;-51
2022/11/13 02:50:10;;;;;;;12.55;10.80;;;1.70;99.90;;;;;;5071505;28;20070;-50
2022/11/13 02:52:36;;;;;;;18.40;12.05;;;1.70;99.90;;;;;;5071374;28;20059;-54
2022/11/13 02:55:03;;;;;;;14.32;11.23;;;1.60;99.90;;;;;;5071466;28;20064;-53
2022/11/13 02:57:28;;;;;;;13.00;10.32;;;1.60;99.90;;;;;;5071146;28;20028;-51
2022/11/13 02:59:54;;;;;;;13.35;10.82;;;1.50;99.90;;;;;;5071491;28;20112;-51
2022/11/13 03:02:19;;;;;;;11.55;10.35;;;1.60;99.90;;;;;;5071376;28;20056;-52
2022/11/13 03:04:45;;;;;;;15.82;11.25;;;1.60;99.90;;;;;;5070048;28;20127;-52
2022/11/13 03:07:12;;;;;;;21.30;16.23;;;1.60;99.90;;;;;;5070119;28;20021;-50
2022/11/13 03:09:38;;;;;;;13.95;10.85;;;1.60;99.90;;;;;;5071126;28;20033;-51
2022/11/13 03:12:04;;;;;;;15.30;10.23;;;1.60;99.90;;;;;;5072836;28;20541;-52
2022/11/13 03:14:30;;;;;;;14.82;10.30;;;1.60;99.90;;;;;;5075142;28;20667;-51
2022/11/13 03:16:55;;;;;;;26.15;18.17;;;1.70;99.90;;;;;;5075356;28;20039;-51
2022/11/13 03:19:21;;;;;;;14.30;11.57;;;1.60;99.90;;;;;;5075057;28;20044;-51
2022/11/13 03:21:47;;;;;;;19.48;11.98;;;1.60;99.90;;;;;;5090539;28;20032;-52
2022/11/13 03:24:12;;;;;;;21.35;13.95;;;1.60;99.90;;;;;;5075172;28;20371;-53
2022/11/13 03:26:38;;;;;;;20.98;14.27;;;1.70;99.90;;;;;;5074822;28;20016;-51
2022/11/13 03:29:03;;;;;;;19.55;12.07;;;1.80;99.90;;;;;;5074972;28;20066;-52
2022/11/13 03:31:29;;;;;;;18.30;13.73;;;1.80;99.90;;;;;;5075016;28;20419;-52
2022/11/13 03:33:55;;;;;;;21.25;12.98;;;1.80;99.90;;;;;;5074984;28;20024;-51
2022/11/13 03:36:20;;;;;;;17.95;13.13;;;1.80;99.90;;;;;;5074908;28;20122;-51
2022/11/13 03:38:46;;;;;;;24.23;12.93;;;1.70;99.90;;;;;;5074747;28;20032;-53
2022/11/13 03:41:15;;;;;;;19.95;14.32;;;1.60;99.90;;;;;;5074681;28;20494;-51
2022/11/13 03:43:41;;;;;;;22.33;15.48;;;1.70;99.90;;;;;;5074607;28;20032;-51
2022/11/13 03:46:07;;;;;;;22.45;16.17;;;1.80;99.90;;;;;;5074751;28;20027;-52
2022/11/13 03:48:32;;;;;;;24.00;15.90;;;1.90;99.90;;;;;;5074602;28;20024;-53
2022/11/13 03:50:58;;;;;;;18.02;14.23;;;1.90;99.90;;;;;;5074541;28;20078;-51
2022/11/13 03:53:24;;;;;;;22.50;15.65;;;1.90;99.90;;;;;;5073219;28;20021;-51
2022/11/13 03:55:50;;;;;;;20.70;15.93;;;2.00;99.90;;;;;;5074489;28;20075;-52
2022/11/13 03:58:16;;;;;;;22.33;15.00;;;2.10;99.90;;;;;;5074402;28;20013;-54
2022/11/13 04:00:43;;;;;;;18.90;14.80;;;2.10;99.90;;;;;;5074391;28;20036;-52
2022/11/13 04:03:09;;;;;;;23.92;15.57;;;2.00;99.90;;;;;;5074258;28;20511;-51
2022/11/13 04:05:34;;;;;;;19.08;13.70;;;2.10;99.90;;;;;;5074354;28;20089;-52
2022/11/13 04:08:00;;;;;;;11.07;9.88;;;2.00;99.90;;;;;;5074318;28;20025;-52
2022/11/13 04:10:26;;;;;;;11.60;10.15;;;1.90;99.90;;;;;;5074123;28;20476;-54
2022/11/13 04:12:51;;;;;;;14.32;11.90;;;1.80;99.90;;;;;;5074314;28;20031;-52
2022/11/13 04:15:17;;;;;;;15.55;11.35;;;1.70;99.90;;;;;;5074163;28;20418;-51
2022/11/13 04:17:43;;;;;;;13.82;11.57;;;1.70;99.90;;;;;;5074086;28;20111;-50
2022/11/13 04:20:09;;;;;;;16.40;10.65;;;1.60;99.90;;;;;;5073997;28;20040;-51
2022/11/13 04:22:35;;;;;;;14.25;10.75;;;1.60;99.90;;;;;;5073227;28;20028;-50
2022/11/13 04:25:00;;;;;;;14.90;11.13;;;1.60;99.90;;;;;;5073108;28;20025;-52
2022/11/13 04:27:26;;;;;;;12.90;11.35;;;1.50;99.90;;;;;;5073818;28;20103;-52
2022/11/13 04:29:52;;;;;;;12.60;11.30;;;1.50;99.90;;;;;;5073915;28;20380;-51
2022/11/13 04:32:17;;;;;;;12.10;10.50;;;1.50;99.90;;;;;;5073966;28;20040;-51
2022/11/13 04:34:43;;;;;;;16.45;13.25;;;1.40;99.90;;;;;;5073687;28;20486;-52
2022/11/13 04:37:08;;;;;;;25.05;17.10;;;1.50;99.90;;;;;;5073742;28;20020;-53
2022/11/13 04:39:34;;;;;;;26.23;17.48;;;1.70;99.90;;;;;;5073657;28;20031;-52
2022/11/13 04:44:44;;;;;;;30.00;17.15;;;1.90;99.90;;;;;;5073507;28;20040;-52
2022/11/13 04:47:11;;;;;;;22.95;15.75;;;1.90;99.90;;;;;;5072292;28;20609;-53
2022/11/13 04:49:37;;;;;;;21.17;15.60;;;1.90;99.90;;;;;;5073301;28;20028;-51
2022/11/13 04:52:03;;;;;;;17.75;13.40;;;1.80;99.90;;;;;;5072258;28;20349;-51
2022/11/13 04:54:28;;;;;;;17.90;13.25;;;1.70;99.90;;;;;;5073294;28;20032;-51
2022/11/13 04:56:54;;;;;;;23.95;14.27;;;1.60;99.90;;;;;;5073360;28;20111;-51
2022/11/13 04:59:19;;;;;;;21.25;13.45;;;1.60;99.90;;;;;;5073259;28;20033;-51
2022/11/13 05:01:45;;;;;;;28.67;14.18;;;1.50;99.90;;;;;;5073138;28;20198;-52
2022/11/13 05:04:14;;;;;;;14.60;12.52;;;1.50;99.90;;;;;;5073186;28;20111;-50
2022/11/13 05:06:40;;;;;;;20.58;14.32;;;1.40;99.90;;;;;;5088700;28;20031;-53
2022/11/13 05:09:07;;;;;;;15.18;12.00;;;1.40;99.90;;;;;;5073096;28;20480;-52
2022/11/13 05:11:32;;;;;;;89.20;15.75;;;1.40;99.90;;;;;;5073029;28;20037;-52
2022/11/13 05:13:58;;;;;;;54.90;13.93;;;1.30;99.90;;;;;;5073075;28;20467;-52
2022/11/13 05:16:24;;;;;;;116.07;17.13;;;1.30;99.90;;;;;;5073111;28;20086;-52
2022/11/13 05:18:49;;;;;;;117.85;16.20;;;1.30;99.90;;;;;;5072512;28;20098;-51
2022/11/13 05:21:15;;;;;;;206.73;19.25;;;1.30;99.90;;;;;;5072849;28;20021;-51
2022/11/13 05:23:41;;;;;;;351.85;21.65;;;1.30;99.90;;;;;;5072662;28;20044;-50
2022/11/13 05:26:09;;;;;;;110.90;17.42;;;1.20;99.90;;;;;;5072805;28;20764;-51
2022/11/13 05:28:35;;;;;;;20.45;14.07;;;1.20;99.90;;;;;;5072596;28;20035;-51
2022/11/13 05:31:10;;;;;;;22.88;14.75;;;1.20;99.90;;;;;;5072826;28;20009;-51
2022/11/13 05:33:38;;;;;;;25.52;16.38;;;1.20;99.90;;;;;;5072563;28;20476;-51
2022/11/13 05:36:09;;;;;;;28.40;18.75;;;1.40;99.90;;;;;;5072174;28;20020;-52
2022/11/13 05:38:35;;;;;;;29.83;18.05;;;1.50;99.90;;;;;;5072361;28;20025;-52
2022/11/13 05:41:09;;;;;;;27.75;19.13;;;1.70;99.90;;;;;;5072583;28;20032;-51
2022/11/13 05:43:36;;;;;;;27.52;18.48;;;1.90;99.90;;;;;;5072337;28;20024;-52
2022/11/13 05:46:11;;;;;;;27.92;19.95;;;2.00;99.90;;;;;;5072515;28;20043;-54
2022/11/13 05:48:37;;;;;;;27.35;18.13;;;2.10;99.90;;;;;;5072263;28;20051;-52
2022/11/13 05:51:09;;;;;;;24.55;15.30;;;2.10;99.90;;;;;;5072380;28;20040;-56
2022/11/13 05:53:35;;;;;;;18.95;15.35;;;2.00;99.90;;;;;;5072127;28;20029;-50
2022/11/13 05:56:12;;;;;;;19.40;15.27;;;1.90;99.90;;;;;;5072250;28;20027;-53
2022/11/13 05:58:38;;;;;;;26.15;17.02;;;1.90;99.90;;;;;;5071845;28;20032;-52
2022/11/13 06:01:20;;;;;;;28.77;20.40;;;1.90;99.90;;;;;;5072118;28;20701;-52
2022/11/13 06:03:47;;;;;;;29.73;19.55;;;2.00;99.90;;;;;;5071974;28;20377;-50
2022/11/13 06:06:15;;;;;;;37.17;24.75;;;2.20;99.90;;;;;;5071993;28;20031;-51
2022/11/13 06:08:41;;;;;;;46.80;28.10;;;2.40;99.90;;;;;;5071850;28;20021;-52
2022/11/13 06:11:12;;;;;;;48.88;28.73;;;2.50;99.90;;;;;;5072036;28;20031;-53
2022/11/13 06:13:39;;;;;;;48.95;29.52;;;2.60;99.90;;;;;;5071841;28;20016;-52
2022/11/13 06:16:16;;;;;;;54.00;29.83;;;2.80;99.90;;;;;;5071869;28;20104;-53
2022/11/13 06:18:44;;;;;;;48.83;29.95;;;2.80;99.90;;;;;;5071518;28;20445;-52
2022/11/13 06:21:16;;;;;;;45.92;29.73;;;2.90;99.90;;;;;;5070313;28;20028;-51
2022/11/13 06:23:43;;;;;;;47.55;29.65;;;3.00;99.90;;;;;;5071762;28;20052;-53
2022/11/13 06:26:18;;;;;;;54.00;29.42;;;3.00;99.90;;;;;;5071652;28;20044;-52
2022/11/13 06:28:44;;;;;;;54.47;31.48;;;3.00;99.90;;;;;;5071326;28;20192;-54
2022/11/13 06:31:30;;;;;;;61.90;33.35;;;3.10;99.90;;;;;;5071753;28;20530;-51
2022/11/13 06:33:58;;;;;;;79.32;33.40;;;3.10;99.90;;;;;;5071689;28;20090;-51
2022/11/13 06:36:29;;;;;;;59.80;32.15;;;3.20;99.90;;;;;;5071739;28;20025;-53
2022/11/13 06:38:55;;;;;;;85.30;32.20;;;3.20;99.90;;;;;;5071668;28;20056;-52
2022/11/13 06:41:23;;;;;;;78.53;33.75;;;3.30;99.90;;;;;;5071518;28;20078;-51
2022/11/13 06:43:49;;;;;;;74.38;31.52;;;3.40;99.90;;;;;;5071418;28;20021;-50
2022/11/13 06:46:23;;;;;;;107.45;35.25;;;3.40;99.90;;;;;;5070857;28;20012;-52
2022/11/13 06:48:49;;;;;;;69.63;33.20;;;3.50;99.90;;;;;;5071432;28;20100;-53
2022/11/13 06:51:19;;;;;;;62.25;31.05;;;3.50;99.90;;;;;;5071430;28;20027;-52
2022/11/13 06:53:45;;;;;;;66.45;30.95;;;3.50;99.90;;;;;;5071273;28;20487;-51
2022/11/13 06:56:11;;;;;;;60.78;31.20;;;3.60;99.90;;;;;;5071641;28;20025;-52
2022/11/13 06:58:36;;;;;;;73.15;34.47;;;3.60;99.90;;;;;;5071209;28;20029;-51
2022/11/13 07:01:08;;;;;;;59.35;31.38;;;3.60;99.90;;;;;;5071381;28;20028;-54
2022/11/13 07:03:33;;;;;;;61.58;33.35;;;3.70;99.90;;;;;;5071237;28;20052;-51
2022/11/13 07:06:04;;;;;;;76.90;33.20;;;3.70;99.90;;;;;;5071443;28;20580;-51
2022/11/13 07:08:30;;;;;;;59.33;30.92;;;3.80;99.90;;;;;;5086595;28;20119;-53
2022/11/13 07:10:56;;;;;;;73.72;32.60;;;3.80;99.90;;;;;;5070986;28;20028;-52
2022/11/13 07:13:23;;;;;;;58.63;30.23;;;3.80;99.90;;;;;;5070900;28;20017;-50
2022/11/13 07:15:48;;;;;;;54.88;29.15;;;3.80;99.90;;;;;;5070734;28;20095;-52
2022/11/13 07:18:15;;;;;;;86.25;30.88;;;3.80;99.90;;;;;;5070592;28;20051;-50
2022/11/13 07:20:40;;;;;;;90.68;28.17;;;3.90;99.90;;;;;;5070397;28;20488;-52
2022/11/13 07:23:06;;;;;;;95.55;30.25;;;3.90;99.90;;;;;;5070412;28;20032;-53
2022/11/13 07:25:32;;;;;;;71.53;28.13;;;3.90;99.90;;;;;;5071067;28;20033;-55
2022/11/13 07:27:58;;;;;;;56.13;29.65;;;3.90;99.90;;;;;;5071254;28;20111;-54
2022/11/13 07:30:24;;;;;;;60.72;27.40;;;4.00;99.90;;;;;;5071292;28;20104;-56
2022/11/13 07:32:50;;;;;;;62.08;27.17;;;3.90;99.90;;;;;;5070965;28;20480;-55
2022/11/13 07:35:16;;;;;;;87.82;30.08;;;4.00;99.90;;;;;;5071157;28;20040;-54
2022/11/13 07:37:42;;;;;;;105.35;27.23;;;3.90;99.90;;;;;;5086466;28;20032;-54
2022/11/13 07:40:09;;;;;;;62.72;28.73;;;4.00;99.90;;;;;;5071130;28;20025;-54
2022/11/13 07:42:35;;;;;;;85.18;27.27;;;4.00;99.90;;;;;;5070650;28;20145;-52
2022/11/13 07:45:00;;;;;;;108.57;28.27;;;4.00;99.90;;;;;;5071020;28;20108;-52
2022/11/13 07:47:26;;;;;;;96.03;27.33;;;4.10;99.90;;;;;;5070924;28;20150;-54
2022/11/13 07:49:52;;;;;;;100.13;26.27;;;4.20;99.90;;;;;;5086321;28;20044;-50
2022/11/13 07:52:17;;;;;;;71.63;26.48;;;4.20;99.90;;;;;;5070941;28;20043;-55
2022/11/13 07:54:43;;;;;;;46.22;23.33;;;4.20;99.90;;;;;;5070684;28;20028;-51
2022/11/13 07:57:09;;;;;;;107.45;26.15;;;4.20;99.90;;;;;;5086028;28;20499;-53
2022/11/13 07:59:34;;;;;;;95.20;26.42;;;4.30;99.90;;;;;;5072960;28;20036;-52
2022/11/13 08:02:00;;;;;;;65.75;27.40;;;4.30;99.90;;;;;;5074236;28;20021;-52
2022/11/13 08:04:26;;;;;;;110.40;27.15;;;4.30;99.90;;;;;;5074348;28;20108;-55
2022/11/13 08:06:51;;;;;;;98.47;25.98;;;4.20;99.90;;;;;;5074404;28;20104;-52
2022/11/13 08:09:17;;;;;;;112.10;25.00;;;4.30;99.90;;;;;;5074221;28;20040;-52
2022/11/13 08:11:43;;;;;;;69.15;26.27;;;4.20;99.90;;;;;;5074003;28;20037;-55
2022/11/13 08:14:09;;;;;;;37.67;23.02;;;4.30;99.90;;;;;;5074269;28;20017;-52
2022/11/13 08:16:35;;;;;;;57.60;23.58;;;4.30;99.90;;;;;;5073998;28;20509;-51
2022/11/13 08:19:02;;;;;;;67.30;24.58;;;4.30;99.90;;;;;;5073898;28;20135;-56
2022/11/13 08:21:27;;;;;;;36.42;23.73;;;4.30;99.90;;;;;;5073731;28;20024;-51
2022/11/13 08:23:53;;;;;;;49.42;23.63;;;4.40;99.90;;;;;;5073891;28;20025;-52
2022/11/13 08:26:19;;;;;;;47.03;22.83;;;4.50;99.90;;;;;;5073672;28;20444;-55
2022/11/13 08:28:45;;;;;;;53.50;24.70;;;4.40;99.90;;;;;;5073575;28;20031;-56
2022/11/13 08:31:12;;;;;;;37.78;23.67;;;4.40;99.90;;;;;;5073741;28;20024;-56
2022/11/13 08:33:38;;;;;;;65.25;25.73;;;4.40;99.90;;;;;;5073738;28;20025;-54
2022/11/13 08:36:04;;;;;;;48.13;24.15;;;4.50;99.90;;;;;;5073941;28;20021;-52
2022/11/13 08:38:30;;;;;;;64.88;25.60;;;4.60;99.90;;;;;;5073610;28;20158;-55
2022/11/13 08:40:57;;;;;;;76.15;23.38;;;4.70;99.90;;;;;;5073508;28;20032;-52
2022/11/13 08:43:23;;;;;;;40.72;21.55;;;4.60;99.90;;;;;;5073584;28;20036;-50
2022/11/13 08:45:48;;;;;;;86.63;23.33;;;4.70;99.90;;;;;;5081257;28;20018;-52
2022/11/13 08:48:14;;;;;;;70.63;23.42;;;4.70;99.90;;;;;;5093539;28;20399;-52
2022/11/13 08:50:40;;;;;;;53.63;22.50;;;4.70;99.90;;;;;;5093549;28;20107;-53
2022/11/13 08:53:06;;;;;;;136.85;40.97;;;4.70;99.90;;;;;;5093718;28;20031;-51
2022/11/13 08:55:32;;;;;;;67.07;32.67;;;4.60;99.90;;;;;;5093396;28;20028;-55
2022/11/13 08:57:59;;;;;;;72.43;29.85;;;4.70;99.90;;;;;;5093534;28;20020;-51
2022/11/13 09:00:29;;;;;;;125.38;80.30;;;4.80;99.90;;;;;;5093640;28;20103;-53
2022/11/13 09:02:59;;;;;;;152.45;69.65;;;4.80;99.90;;;;;;5093168;28;20035;-51
2022/11/13 09:05:26;;;;;;;258.20;150.90;;;4.80;99.90;;;;;;5093540;28;20363;-52
2022/11/13 09:07:55;;;;;;;118.18;52.25;;;4.80;99.90;;;;;;5093225;28;20019;-54
2022/11/13 09:10:21;;;;;;;252.60;150.70;;;4.80;99.90;;;;;;5092617;28;20095;-50
2022/11/13 09:12:47;;;;;;;175.80;96.45;;;4.90;99.90;;;;;;5093184;28;20115;-52
2022/11/13 09:15:12;;;;;;;78.57;45.50;;;5.00;99.90;;;;;;5093198;28;20056;-51
2022/11/13 09:17:38;;;;;;;63.58;42.38;;;5.00;99.90;;;;;;5092863;28;20102;-53
2022/11/13 09:20:07;;;;;;;59.22;36.08;;;5.00;99.90;;;;;;5093252;28;20048;-51
2022/11/13 09:22:33;;;;;;;54.70;31.25;;;5.10;99.90;;;;;;5092572;28;20055;-53
2022/11/13 09:24:59;;;;;;;49.67;30.67;;;5.10;99.90;;;;;;5093026;28;20490;-53
2022/11/13 09:27:25;;;;;;;66.78;40.80;;;5.10;99.90;;;;;;5091747;28;20030;-50
2022/11/13 09:29:50;;;;;;;80.50;48.45;;;5.30;99.90;;;;;;5092731;28;20028;-53
2022/11/13 09:32:16;;;;;;;81.18;46.72;;;5.40;99.90;;;;;;5092873;28;20032;-51
2022/11/13 09:34:42;;;;;;;102.35;58.25;;;5.50;99.90;;;;;;5092754;28;20035;-53
2022/11/13 09:37:07;;;;;;;75.50;49.67;;;5.50;99.90;;;;;;5092693;28;20028;-52
2022/11/13 09:39:33;;;;;;;88.05;56.13;;;5.60;99.90;;;;;;5093004;28;20024;-50
2022/11/13 09:42:22;;;;;;;69.65;44.72;;;5.70;99.90;;;;;;5092649;28;20020;-52
2022/11/13 09:45:02;;;;;;;332.20;201.13;;;5.80;99.90;;;;;;5092739;28;20028;-52
2022/11/13 09:47:35;;;;;;;81.30;50.75;;;5.70;99.90;;;;;;5092306;28;20024;-53
2022/11/13 09:50:06;;;;;;;286.95;173.38;;;5.70;99.90;;;;;;5092717;28;20344;-52
2022/11/13 09:52:38;;;;;;;224.85;148.80;;;5.80;99.90;;;;;;5092330;28;20035;-51
2022/11/13 09:55:04;;;;;;;125.10;85.25;;;5.90;99.90;;;;;;5092583;28;20414;-53
2022/11/13 09:57:30;;;;;;;421.50;288.40;;;6.00;99.90;;;;;;5090838;28;20438;-54
2022/11/13 10:00:00;;;;;;;245.63;167.15;;;6.00;99.90;;;;;;5092290;28;20048;-52
2022/11/13 10:02:43;;;;;;;167.50;111.05;;;5.90;99.90;;;;;;5092148;28;20030;-53
2022/11/13 10:05:26;;;;;;;110.85;71.03;;;6.00;99.90;;;;;;5092446;28;20027;-52
2022/11/13 10:08:09;;;;;;;297.73;192.07;;;6.20;99.90;;;;;;5092119;28;20073;-53
2022/11/13 10:11:13;;;;;;;110.70;66.18;;;6.30;99.90;;;;;;5092044;28;20098;-53
2022/11/13 10:13:48;;;;;;;443.67;253.60;;;6.30;99.90;;;;;;5048881;28;20052;-51
2022/11/13 10:16:33;;;;;;;194.73;115.28;;;6.30;99.90;;;;;;5085962;28;20106;-55
2022/11/13 10:19:23;;;;;;;174.80;98.97;;;6.40;99.90;;;;;;5091716;28;20499;-51
2022/11/13 10:22:11;;;;;;;214.45;120.78;;;6.60;99.90;;;;;;5091854;28;20028;-49
2022/11/13 10:24:43;;;;;;;65.80;41.17;;;6.70;99.90;;;;;;5091784;28;20020;-51
2022/11/13 10:27:11;;;;;;;89.75;52.17;;;6.80;99.90;;;;;;5091909;28;20028;-52
2022/11/13 10:29:38;;;;;;;86.70;54.58;;;6.80;99.90;;;;;;5091669;28;20464;-50
2022/11/13 10:32:23;;;;;;;80.85;47.72;;;6.80;99.90;;;;;;5091961;28;20024;-53
2022/11/13 10:35:03;;;;;;;96.07;61.13;;;7.00;99.90;;;;;;5091629;28;20035;-53
2022/11/13 10:37:50;;;;;;;180.35;108.63;;;7.10;99.90;;;;;;5091627;28;20550;-50
2022/11/13 10:40:30;;;;;;;47.72;29.70;;;7.30;99.90;;;;;;5090465;28;20371;-54
2022/11/13 10:43:13;;;;;;;235.95;121.53;;;7.30;99.90;;;;;;5091542;28;20028;-51
2022/11/13 10:45:40;;;;;;;135.05;63.90;;;7.50;99.90;;;;;;5091662;28;20028;-50
2022/11/13 10:48:23;;;;;;;61.85;32.65;;;7.50;99.90;;;;;;5091688;28;20376;-56
2022/11/13 10:51:18;;;;;;;40.65;30.15;;;7.50;99.90;;;;;;5091469;28;20385;-50
2022/11/13 10:53:45;;;;;;;79.30;52.03;;;7.30;99.90;;;;;;5090076;28;20059;-53
2022/11/13 10:56:12;;;;;;;44.17;32.28;;;7.10;99.90;;;;;;5091551;28;20032;-52
2022/11/13 10:58:38;;;;;;;39.10;26.58;;;7.30;99.90;;;;;;5091551;28;20027;-53
2022/11/13 11:01:21;;;;;;;29.25;21.63;;;7.50;99.90;;;;;;5091400;28;20009;-51
2022/11/13 11:03:49;;;;;;;27.08;20.50;;;7.50;99.90;;;;;;5091629;28;20020;-55
2022/11/13 11:06:14;;;;;;;31.60;21.95;;;7.80;99.90;;;;;;5091485;28;20036;-54
2022/11/13 11:08:40;;;;;;;25.15;18.92;;;8.10;99.90;;;;;;5091227;28;20024;-53
2022/11/13 11:14:23;;;;;;;20.85;16.55;;;9.20;99.90;;;;;;5091835;28;20097;-55
2022/11/13 11:16:51;;;;;;;21.65;17.10;;;9.70;99.90;;;;;;5091461;28;20115;-52
2022/11/13 11:19:21;;;;;;;22.58;18.25;;;10.00;99.90;;;;;;5091068;28;20126;-52
2022/11/13 11:21:50;;;;;;;20.75;16.80;;;9.90;99.90;;;;;;5091204;28;20032;-51
2022/11/13 11:24:21;;;;;;;22.27;17.40;;;10.20;99.90;;;;;;5091361;28;20048;-50
2022/11/13 11:27:10;;;;;;;23.63;17.02;;;10.60;99.90;;;;;;5091007;28;20052;-54
2022/11/13 11:29:45;;;;;;;20.00;15.40;;;11.70;99.90;;;;;;5067859;28;20052;-54
2022/11/13 11:32:17;;;;;;;19.00;14.82;;;12.00;99.90;;;;;;5059942;28;20121;-51
2022/11/13 11:34:48;;;;;;;16.92;15.13;;;12.10;99.90;;;;;;5062854;28;20496;-54
2022/11/13 11:37:17;;;;;;;23.17;17.50;;;12.00;99.90;;;;;;5063628;28;20043;-57
2022/11/13 11:39:47;;;;;;;18.45;15.40;;;11.80;99.90;;;;;;5062265;28;20156;-51
2022/11/13 11:42:43;;;;;;;22.85;15.18;;;11.50;99.90;;;;;;5063026;28;20652;-51
2022/11/13 11:45:12;;;;;;;18.75;16.15;;;11.70;99.90;;;;;;5063408;28;20037;-55
2022/11/13 11:47:38;;;;;;;23.75;15.82;;;12.30;99.90;;;;;;5062400;28;20041;-53
2022/11/13 11:50:11;;;;;;;23.40;16.67;;;12.50;99.90;;;;;;5062938;28;20456;-53
2022/11/13 11:52:58;;;;;;;17.40;13.65;;;13.70;99.90;;;;;;5062217;28;20082;-54
2022/11/13 11:55:55;;;;;;;15.00;12.65;;;14.90;98.00;;;;;;5063625;28;20257;-51
2022/11/13 11:58:31;;;;;;;15.18;12.75;;;16.50;94.00;;;;;;5064486;28;20017;-53
2022/11/13 12:01:29;;;;;;;15.60;11.95;;;18.30;90.90;;;;;;5063484;28;20032;-53
2022/11/13 12:04:04;;;;;;;17.45;13.05;;;18.50;85.30;;;;;;5063330;28;20025;-54
2022/11/13 12:06:36;;;;;;;12.60;11.27;;;17.60;86.80;;;;;;5063259;28;20024;-54
2022/11/13 12:09:23;;;;;;;14.32;11.68;;;18.20;86.50;;;;;;5063609;28;20490;-50
2022/11/13 12:12:10;;;;;;;14.07;12.07;;;18.20;85.00;;;;;;5061244;28;20037;-54
2022/11/13 12:15:02;;;;;;;13.35;11.55;;;18.40;82.80;;;;;;5063153;28;20040;-55
2022/11/13 12:17:48;;;;;;;12.10;10.85;;;18.90;82.30;;;;;;5062656;28;22242;-50
2022/11/13 12:20:57;;;;;;;15.52;13.82;;;18.70;80.70;;;;;;5063890;28;20060;-55
2022/11/13 12:23:47;;;;;;;13.05;11.65;;;19.50;78.90;;;;;;5062929;28;20041;-55
2022/11/13 12:26:42;;;;;;;18.25;11.80;;;20.30;77.50;;;;;;5063267;28;20078;-56
2022/11/13 12:29:32;;;;;;;19.75;11.57;;;20.10;74.80;;;;;;5063480;28;20028;-55
2022/11/13 12:32:01;;;;;;;14.90;10.98;;;19.80;74.00;;;;;;5062554;28;20035;-53
2022/11/13 12:34:50;;;;;;;15.40;11.52;;;20.10;72.70;;;;;;5063089;28;20089;-55
2022/11/13 12:37:30;;;;;;;14.95;12.23;;;20.00;73.10;;;;;;5063505;28;20043;-52
2022/11/13 12:39:59;;;;;;;12.13;10.88;;;19.80;73.20;;;;;;5063232;28;20033;-50
2022/11/13 12:42:48;;;;;;;12.85;11.13;;;19.50;73.90;;;;;;5062662;28;20537;-54
2022/11/13 12:45:41;;;;;;;16.63;11.57;;;20.00;72.80;;;;;;5062321;28;20039;-54
2022/11/13 12:48:08;;;;;;;13.32;10.20;;;19.80;73.30;;;;;;5063231;28;20115;-52
2022/11/13 12:50:35;;;;;;;13.32;11.57;;;20.30;70.80;;;;;;5063276;28;20589;-51
2022/11/13 12:53:01;;;;;;;14.02;10.45;;;20.20;71.40;;;;;;5062077;28;20351;-52